Startpagina
METAR-TAF:

METAR-TAF

Vliegvelden :

Luchthaven van Boedapest

Boedapest, Hongarije

breedte: 47-26N, lengte: 019-16E, hoogte: 151 m

Actueel weer

Dit bericht is 18 minuten geleden gemaakt, om 22:30 UTC
Wind 1 kt uit variabele richting
Temperatuur 22°C
Vochtigheid 65%
Druk 1018 hPa
Zicht 10 km of meer
geen wolken onder 1500 m en geen cumulonimbus

METAR: LHBP 192230Z VRB01KT CAVOK 22/15 Q1018 NOSIG

Tijdstip: 00:48 (22:48 UTC)

Verwachting

Dit bericht is 5 uur en het 33 minuten geleden gemaakt, om 17:15 UTC
Verwachting geldig van 19 om 18 UTC tot 20 om 18 UTC
Wind 3 kt uit variabele richting
Zicht 10 km of meer
geen wolken onder 1500 m en geen cumulonimbus
Tijdelijke
van 19 om 22 UTC tot 20 om 03 UTC
Wind 7 kt uit het oostnoordoosten
Tijdelijke
van 20 om 12 UTC tot 20 om 18 UTC
Weinig wolken op 6500 ft, Stapelwolken.

TAF: LHBP 191715Z 1918/2018 VRB03KT CAVOK TEMPO 1922/2003 07007KT TEMPO 2012/2018 FEW065TCU

Waarnemingen en weersverwachtingen van meer dan 4000 vliegvelden (METAR en TAF).

De beschikbare stations zijn de gele en rode punten op de kaart.

Ga met uw muis naar het station om de naam te zien.

Klik dan om waarnemingen en weersverwachtingen te zien.

kaart wijzigen: klik op de groene knoppen met een zwart kruis om in te zoomen, op de groene knop met een streepje om uit te zoomen of op de groene pijlen voor aangrenzende kaarten.


METAR-TAF: